sensor_id;sensor_type;location;lat;lon;timestamp;pressure;altitude;pressure_sealevel;temperature;humidity
21236;BME280;10775;42.678;26.324;2024-01-15T00:00:39;98242.53;;;-1.89;81.57
21236;BME280;10775;42.678;26.324;2024-01-15T00:03:04;98240.78;;;-1.90;81.68
21236;BME280;10775;42.678;26.324;2024-01-15T00:05:30;98251.81;;;-1.92;82.05
21236;BME280;10775;42.678;26.324;2024-01-15T00:07:55;98247.56;;;-1.92;82.50
21236;BME280;10775;42.678;26.324;2024-01-15T00:10:21;98245.91;;;-1.90;82.07
21236;BME280;10775;42.678;26.324;2024-01-15T00:12:46;98251.09;;;-1.87;82.02
21236;BME280;10775;42.678;26.324;2024-01-15T00:15:12;98246.81;;;-1.88;81.82
21236;BME280;10775;42.678;26.324;2024-01-15T00:17:37;98239.91;;;-1.90;81.62
21236;BME280;10775;42.678;26.324;2024-01-15T00:20:03;98236.31;;;-1.99;82.05
21236;BME280;10775;42.678;26.324;2024-01-15T00:22:29;98232.00;;;-2.00;82.15
21236;BME280;10775;42.678;26.324;2024-01-15T00:24:54;98242.06;;;-2.09;82.45
21236;BME280;10775;42.678;26.324;2024-01-15T00:27:20;98253.06;;;-2.13;82.84
21236;BME280;10775;42.678;26.324;2024-01-15T00:29:45;98252.13;;;-2.16;83.03
21236;BME280;10775;42.678;26.324;2024-01-15T00:32:11;98255.50;;;-2.17;83.19
21236;BME280;10775;42.678;26.324;2024-01-15T00:34:36;98251.28;;;-2.15;83.38
21236;BME280;10775;42.678;26.324;2024-01-15T00:37:01;98253.00;;;-2.16;83.67
21236;BME280;10775;42.678;26.324;2024-01-15T00:39:28;98252.28;;;-2.10;83.60
21236;BME280;10775;42.678;26.324;2024-01-15T00:41:53;98255.69;;;-2.11;82.96
21236;BME280;10775;42.678;26.324;2024-01-15T00:44:18;98250.50;;;-2.14;83.24
21236;BME280;10775;42.678;26.324;2024-01-15T00:46:45;98250.50;;;-2.14;83.39
21236;BME280;10775;42.678;26.324;2024-01-15T00:49:11;98245.25;;;-2.17;83.46
21236;BME280;10775;42.678;26.324;2024-01-15T00:51:37;98243.50;;;-2.20;83.26
21236;BME280;10775;42.678;26.324;2024-01-15T00:54:02;98241.72;;;-2.23;83.27
21236;BME280;10775;42.678;26.324;2024-01-15T00:56:28;98241.72;;;-2.23;83.74
21236;BME280;10775;42.678;26.324;2024-01-15T00:58:53;98233.97;;;-2.27;83.81
21236;BME280;10775;42.678;26.324;2024-01-15T01:01:18;98244.09;;;-2.32;84.25
21236;BME280;10775;42.678;26.324;2024-01-15T01:03:44;98232.09;;;-2.34;84.25
21236;BME280;10775;42.678;26.324;2024-01-15T01:06:09;98240.63;;;-2.34;84.17
21236;BME280;10775;42.678;26.324;2024-01-15T01:08:35;98231.25;;;-2.33;84.47
21236;BME280;10775;42.678;26.324;2024-01-15T01:11:00;98238.00;;;-2.37;84.37
21236;BME280;10775;42.678;26.324;2024-01-15T01:13:26;98239.56;;;-2.42;84.24
21236;BME280;10775;42.678;26.324;2024-01-15T01:15:51;98239.53;;;-2.44;84.51
21236;BME280;10775;42.678;26.324;2024-01-15T01:18:16;98244.53;;;-2.48;84.87
21236;BME280;10775;42.678;26.324;2024-01-15T01:20:42;98236.59;;;-2.59;84.98
21236;BME280;10775;42.678;26.324;2024-01-15T01:23:07;98246.91;;;-2.56;85.65
21236;BME280;10775;42.678;26.324;2024-01-15T01:25:33;98241.75;;;-2.57;85.68
21236;BME280;10775;42.678;26.324;2024-01-15T01:27:58;98250.09;;;-2.65;85.62
21236;BME280;10775;42.678;26.324;2024-01-15T01:30:23;98243.16;;;-2.69;86.14
21236;BME280;10775;42.678;26.324;2024-01-15T01:32:49;98248.22;;;-2.72;86.13
21236;BME280;10775;42.678;26.324;2024-01-15T01:35:14;98241.31;;;-2.74;86.54
21236;BME280;10775;42.678;26.324;2024-01-15T01:37:40;98242.16;;;-2.75;86.41
21236;BME280;10775;42.678;26.324;2024-01-15T01:40:06;98239.56;;;-2.77;86.42
21236;BME280;10775;42.678;26.324;2024-01-15T01:42:31;98238.63;;;-2.79;86.65
21236;BME280;10775;42.678;26.324;2024-01-15T01:44:57;98240.25;;;-2.82;86.13
21236;BME280;10775;42.678;26.324;2024-01-15T01:47:23;98236.84;;;-2.83;86.53
21236;BME280;10775;42.678;26.324;2024-01-15T01:49:52;98235.06;;;-2.86;86.64
21236;BME280;10775;42.678;26.324;2024-01-15T01:52:17;98246.91;;;-2.89;86.31
21236;BME280;10775;42.678;26.324;2024-01-15T01:54:43;98246.91;;;-2.89;87.17
21236;BME280;10775;42.678;26.324;2024-01-15T01:57:09;98242.69;;;-2.87;87.43
21236;BME280;10775;42.678;26.324;2024-01-15T01:59:35;98239.28;;;-2.88;87.52
21236;BME280;10775;42.678;26.324;2024-01-15T02:02:02;98233.22;;;-2.91;87.58
21236;BME280;10775;42.678;26.324;2024-01-15T02:04:29;98237.34;;;-2.96;87.88
21236;BME280;10775;42.678;26.324;2024-01-15T02:06:56;98233.84;;;-3.00;88.07
21236;BME280;10775;42.678;26.324;2024-01-15T02:09:21;98224.44;;;-3.01;88.41
21236;BME280;10775;42.678;26.324;2024-01-15T02:11:47;98227.81;;;-3.02;88.51
21236;BME280;10775;42.678;26.324;2024-01-15T02:14:13;98220.97;;;-3.03;88.46
21236;BME280;10775;42.678;26.324;2024-01-15T02:16:39;98228.59;;;-3.04;88.47
21236;BME280;10775;42.678;26.324;2024-01-15T02:19:05;98230.25;;;-3.07;88.87
21236;BME280;10775;42.678;26.324;2024-01-15T02:21:31;98214.91;;;-3.07;88.61
21236;BME280;10775;42.678;26.324;2024-01-15T02:23:57;98212.19;;;-3.13;88.75
21236;BME280;10775;42.678;26.324;2024-01-15T02:26:23;98218.94;;;-3.15;89.11
21236;BME280;10775;42.678;26.324;2024-01-15T02:28:50;98212.09;;;-3.16;89.56
21236;BME280;10775;42.678;26.324;2024-01-15T02:31:16;98210.38;;;-3.17;89.84
21236;BME280;10775;42.678;26.324;2024-01-15T02:33:42;98210.41;;;-3.15;90.18
21236;BME280;10775;42.678;26.324;2024-01-15T02:36:08;98202.78;;;-3.14;90.12
21236;BME280;10775;42.678;26.324;2024-01-15T02:38:33;98202.91;;;-3.09;89.75
21236;BME280;10775;42.678;26.324;2024-01-15T02:40:59;98208.88;;;-3.09;89.93
21236;BME280;10775;42.678;26.324;2024-01-15T02:43:24;98200.44;;;-3.06;89.89
21236;BME280;10775;42.678;26.324;2024-01-15T02:45:50;98198.81;;;-3.02;89.67
21236;BME280;10775;42.678;26.324;2024-01-15T02:48:15;98205.75;;;-2.98;89.27
21236;BME280;10775;42.678;26.324;2024-01-15T02:50:41;98193.88;;;-2.95;89.02
21236;BME280;10775;42.678;26.324;2024-01-15T02:53:06;98183.63;;;-2.96;88.49
21236;BME280;10775;42.678;26.324;2024-01-15T02:55:32;98179.38;;;-2.96;88.97
21236;BME280;10775;42.678;26.324;2024-01-15T02:57:57;98173.50;;;-2.92;88.93
21236;BME280;10775;42.678;26.324;2024-01-15T03:00:23;98177.94;;;-2.85;88.81
21236;BME280;10775;42.678;26.324;2024-01-15T03:02:50;98176.16;;;-2.87;88.93
21236;BME280;10775;42.678;26.324;2024-01-15T03:05:16;98165.13;;;-2.86;89.14
21236;BME280;10775;42.678;26.324;2024-01-15T03:07:41;98168.63;;;-2.82;88.98
21236;BME280;10775;42.678;26.324;2024-01-15T03:10:07;98169.66;;;-2.76;88.51
21236;BME280;10775;42.678;26.324;2024-01-15T03:12:33;98176.56;;;-2.72;88.00
21236;BME280;10775;42.678;26.324;2024-01-15T03:14:58;98170.72;;;-2.66;87.62
21236;BME280;10775;42.678;26.324;2024-01-15T03:17:24;98169.84;;;-2.67;87.49
21236;BME280;10775;42.678;26.324;2024-01-15T03:19:49;98163.16;;;-2.62;87.42
21236;BME280;10775;42.678;26.324;2024-01-15T03:22:16;98162.69;;;-2.45;86.15
21236;BME280;10775;42.678;26.324;2024-01-15T03:24:41;98160.31;;;-2.37;86.19
21236;BME280;10775;42.678;26.324;2024-01-15T03:27:06;98164.59;;;-2.36;85.52
21236;BME280;10775;42.678;26.324;2024-01-15T03:29:33;98157.72;;;-2.39;86.17
21236;BME280;10775;42.678;26.324;2024-01-15T03:31:58;98162.16;;;-2.32;85.82
21236;BME280;10775;42.678;26.324;2024-01-15T03:34:24;98156.25;;;-2.28;85.21
21236;BME280;10775;42.678;26.324;2024-01-15T03:36:49;98155.31;;;-2.31;85.14
21236;BME280;10775;42.678;26.324;2024-01-15T03:39:15;98153.44;;;-2.38;85.36
21236;BME280;10775;42.678;26.324;2024-01-15T03:41:40;98155.09;;;-2.42;85.41
21236;BME280;10775;42.678;26.324;2024-01-15T03:44:05;98152.28;;;-2.51;85.94
21236;BME280;10775;42.678;26.324;2024-01-15T03:46:32;98155.69;;;-2.52;86.06
21236;BME280;10775;42.678;26.324;2024-01-15T03:48:57;98151.31;;;-2.56;86.29
21236;BME280;10775;42.678;26.324;2024-01-15T03:51:23;98149.56;;;-2.59;86.69
21236;BME280;10775;42.678;26.324;2024-01-15T03:53:48;98147.84;;;-2.60;86.76
21236;BME280;10775;42.678;26.324;2024-01-15T03:56:14;98152.97;;;-2.60;86.97
21236;BME280;10775;42.678;26.324;2024-01-15T03:58:39;98157.59;;;-2.44;86.88
21236;BME280;10775;42.678;26.324;2024-01-15T04:01:12;98159.53;;;-2.35;85.91
21236;BME280;10775;42.678;26.324;2024-01-15T04:03:37;98150.94;;;-2.37;85.95
21236;BME280;10775;42.678;26.324;2024-01-15T04:06:03;98159.34;;;-2.43;85.79
21236;BME280;10775;42.678;26.324;2024-01-15T04:08:29;98167.94;;;-2.39;85.99
21236;BME280;10775;42.678;26.324;2024-01-15T04:10:55;98172.16;;;-2.41;85.77
21236;BME280;10775;42.678;26.324;2024-01-15T04:13:21;98166.97;;;-2.44;85.73
21236;BME280;10775;42.678;26.324;2024-01-15T04:15:46;98174.59;;;-2.46;86.20
21236;BME280;10775;42.678;26.324;2024-01-15T04:18:11;98167.03;;;-2.41;85.79
21236;BME280;10775;42.678;26.324;2024-01-15T04:20:37;98168.00;;;-2.36;85.45
21236;BME280;10775;42.678;26.324;2024-01-15T04:23:03;98163.81;;;-2.34;85.26
21236;BME280;10775;42.678;26.324;2024-01-15T04:25:29;98169.88;;;-2.29;84.94
21236;BME280;10775;42.678;26.324;2024-01-15T04:27:54;98166.59;;;-2.25;84.91
21236;BME280;10775;42.678;26.324;2024-01-15T04:30:20;98169.22;;;-2.22;84.55
21236;BME280;10775;42.678;26.324;2024-01-15T04:32:46;98161.63;;;-2.17;84.59
21236;BME280;10775;42.678;26.324;2024-01-15T04:35:11;98160.06;;;-2.10;84.10
21236;BME280;10775;42.678;26.324;2024-01-15T04:37:38;98155.78;;;-2.10;83.84
21236;BME280;10775;42.678;26.324;2024-01-15T04:40:03;98148.22;;;-2.05;83.29
21236;BME280;10775;42.678;26.324;2024-01-15T04:42:29;98153.31;;;-2.05;83.43
21236;BME280;10775;42.678;26.324;2024-01-15T04:44:55;98140.50;;;-2.07;82.93
21236;BME280;10775;42.678;26.324;2024-01-15T04:47:20;98145.53;;;-2.10;83.54
21236;BME280;10775;42.678;26.324;2024-01-15T04:49:46;98138.59;;;-2.15;83.54
21236;BME280;10775;42.678;26.324;2024-01-15T04:52:11;98137.78;;;-2.14;83.65
21236;BME280;10775;42.678;26.324;2024-01-15T04:54:37;98141.94;;;-2.20;83.76
21236;BME280;10775;42.678;26.324;2024-01-15T04:57:03;98150.53;;;-2.16;83.92
21236;BME280;10775;42.678;26.324;2024-01-15T04:59:29;98147.13;;;-2.16;83.47
21236;BME280;10775;42.678;26.324;2024-01-15T05:01:55;98154.13;;;-2.08;83.80
21236;BME280;10775;42.678;26.324;2024-01-15T05:04:20;98149.06;;;-2.05;83.11
21236;BME280;10775;42.678;26.324;2024-01-15T05:06:46;98144.75;;;-2.07;82.85
21236;BME280;10775;42.678;26.324;2024-01-15T05:09:11;98148.34;;;-1.99;83.11
21236;BME280;10775;42.678;26.324;2024-01-15T05:11:39;98140.63;;;-2.01;82.68
21236;BME280;10775;42.678;26.324;2024-01-15T05:14:04;98132.03;;;-2.03;83.03
21236;BME280;10775;42.678;26.324;2024-01-15T05:16:29;98136.13;;;-2.11;82.61
21236;BME280;10775;42.678;26.324;2024-01-15T05:18:55;98136.00;;;-2.17;83.35
21236;BME280;10775;42.678;26.324;2024-01-15T05:21:20;98151.22;;;-2.23;83.88
21236;BME280;10775;42.678;26.324;2024-01-15T05:23:46;98141.22;;;-2.12;84.10
21236;BME280;10775;42.678;26.324;2024-01-15T05:26:11;98143.94;;;-2.06;83.65
21236;BME280;10775;42.678;26.324;2024-01-15T05:28:37;98137.19;;;-2.01;83.16
21236;BME280;10775;42.678;26.324;2024-01-15T05:31:02;98140.78;;;-1.93;82.81
21236;BME280;10775;42.678;26.324;2024-01-15T05:33:29;98138.09;;;-1.99;82.06
21236;BME280;10775;42.678;26.324;2024-01-15T05:35:54;98136.34;;;-2.02;82.32
21236;BME280;10775;42.678;26.324;2024-01-15T05:38:20;98142.28;;;-2.04;82.15
21236;BME280;10775;42.678;26.324;2024-01-15T05:40:46;98135.34;;;-2.08;82.56
21236;BME280;10775;42.678;26.324;2024-01-15T05:43:11;98139.66;;;-2.06;82.64
21236;BME280;10775;42.678;26.324;2024-01-15T05:45:38;98145.66;;;-2.05;82.50
21236;BME280;10775;42.678;26.324;2024-01-15T05:48:03;98143.72;;;-2.15;83.11
21236;BME280;10775;42.678;26.324;2024-01-15T05:50:29;98142.56;;;-2.28;83.85
21236;BME280;10775;42.678;26.324;2024-01-15T05:52:54;98136.56;;;-2.30;84.59
21236;BME280;10775;42.678;26.324;2024-01-15T05:55:20;98129.13;;;-2.20;84.56
21236;BME280;10775;42.678;26.324;2024-01-15T05:57:45;98136.19;;;-2.08;84.13
21236;BME280;10775;42.678;26.324;2024-01-15T06:00:11;98134.50;;;-2.07;84.48
21236;BME280;10775;42.678;26.324;2024-01-15T06:02:38;98136.09;;;-2.12;84.73
21236;BME280;10775;42.678;26.324;2024-01-15T06:05:04;98137.84;;;-2.11;85.97
21236;BME280;10775;42.678;26.324;2024-01-15T06:07:29;98135.28;;;-2.11;85.91
21236;BME280;10775;42.678;26.324;2024-01-15T06:09:55;98136.09;;;-2.12;85.75
21236;BME280;10775;42.678;26.324;2024-01-15T06:12:22;98136.13;;;-2.11;86.15
21236;BME280;10775;42.678;26.324;2024-01-15T06:14:48;98138.00;;;-2.02;86.70
21236;BME280;10775;42.678;26.324;2024-01-15T06:17:13;98134.66;;;-2.00;86.73
21236;BME280;10775;42.678;26.324;2024-01-15T06:19:38;98139.94;;;-1.93;87.15
21236;BME280;10775;42.678;26.324;2024-01-15T06:22:04;98136.50;;;-1.94;87.03
21236;BME280;10775;42.678;26.324;2024-01-15T06:24:29;98139.94;;;-1.93;86.52
21236;BME280;10775;42.678;26.324;2024-01-15T06:26:55;98140.78;;;-1.93;87.05
21236;BME280;10775;42.678;26.324;2024-01-15T06:29:20;98138.28;;;-1.90;87.44
21236;BME280;10775;42.678;26.324;2024-01-15T06:31:46;98131.53;;;-1.85;86.86
21236;BME280;10775;42.678;26.324;2024-01-15T06:34:11;98130.19;;;-1.67;88.05
21236;BME280;10775;42.678;26.324;2024-01-15T06:36:37;98128.78;;;-1.53;86.60
21236;BME280;10775;42.678;26.324;2024-01-15T06:39:03;98122.13;;;-1.42;86.53
21236;BME280;10775;42.678;26.324;2024-01-15T06:41:28;98114.69;;;-1.28;86.84
21236;BME280;10775;42.678;26.324;2024-01-15T06:43:53;98113.25;;;-1.14;87.66
21236;BME280;10775;42.678;26.324;2024-01-15T06:46:21;98103.69;;;-1.22;86.78
21236;BME280;10775;42.678;26.324;2024-01-15T06:48:48;98099.38;;;-1.25;86.54
21236;BME280;10775;42.678;26.324;2024-01-15T06:51:13;98108.66;;;-1.32;87.16
21236;BME280;10775;42.678;26.324;2024-01-15T06:53:39;98116.25;;;-1.38;86.04
21236;BME280;10775;42.678;26.324;2024-01-15T06:56:04;98124.13;;;-1.27;87.75
21236;BME280;10775;42.678;26.324;2024-01-15T06:58:33;98120.84;;;-1.20;87.31
21236;BME280;10775;42.678;26.324;2024-01-15T07:00:58;98126.94;;;-1.13;87.43
21236;BME280;10775;42.678;26.324;2024-01-15T07:03:24;98129.63;;;-1.07;87.61
21236;BME280;10775;42.678;26.324;2024-01-15T07:05:49;98140.00;;;-0.99;88.91
21236;BME280;10775;42.678;26.324;2024-01-15T07:08:15;98141.69;;;-1.01;87.95
21236;BME280;10775;42.678;26.324;2024-01-15T07:10:40;98143.44;;;-0.99;88.47
21236;BME280;10775;42.678;26.324;2024-01-15T07:13:06;98151.25;;;-0.91;88.83
21236;BME280;10775;42.678;26.324;2024-01-15T07:15:31;98143.78;;;-0.77;88.22
21236;BME280;10775;42.678;26.324;2024-01-15T07:17:57;98143.91;;;-0.71;87.48
21236;BME280;10775;42.678;26.324;2024-01-15T07:20:22;98141.34;;;-0.70;87.30
21236;BME280;10775;42.678;26.324;2024-01-15T07:22:48;98150.09;;;-0.58;88.04
21236;BME280;10775;42.678;26.324;2024-01-15T07:25:13;98150.34;;;-0.43;89.47
21236;BME280;10775;42.678;26.324;2024-01-15T07:27:38;98152.00;;;-0.45;88.88
21236;BME280;10775;42.678;26.324;2024-01-15T07:30:04;98149.31;;;-0.51;88.24
21236;BME280;10775;42.678;26.324;2024-01-15T07:32:31;98140.84;;;-0.47;88.32
21236;BME280;10775;42.678;26.324;2024-01-15T07:34:57;98144.38;;;-0.39;88.42
21236;BME280;10775;42.678;26.324;2024-01-15T07:37:24;98141.16;;;-0.27;88.08
21236;BME280;10775;42.678;26.324;2024-01-15T07:39:50;98129.41;;;-0.10;89.50
21236;BME280;10775;42.678;26.324;2024-01-15T07:42:15;98123.75;;;0.17;90.47
21236;BME280;10775;42.678;26.324;2024-01-15T07:44:41;98128.22;;;0.31;88.03
21236;BME280;10775;42.678;26.324;2024-01-15T07:47:06;98124.91;;;0.42;87.20
21236;BME280;10775;42.678;26.324;2024-01-15T07:49:34;98123.31;;;0.52;87.21
21236;BME280;10775;42.678;26.324;2024-01-15T07:51:59;98133.75;;;0.68;87.44
21236;BME280;10775;42.678;26.324;2024-01-15T07:54:25;98117.56;;;0.78;87.51
21236;BME280;10775;42.678;26.324;2024-01-15T07:56:55;98127.22;;;1.02;83.22
21236;BME280;10775;42.678;26.324;2024-01-15T07:59:21;98128.16;;;1.08;85.20
21236;BME280;10775;42.678;26.324;2024-01-15T08:01:46;98130.69;;;1.07;85.74
21236;BME280;10775;42.678;26.324;2024-01-15T08:04:12;98126.38;;;1.03;84.27
21236;BME280;10775;42.678;26.324;2024-01-15T08:06:38;98122.97;;;1.05;85.06
21236;BME280;10775;42.678;26.324;2024-01-15T08:09:04;98127.34;;;1.14;84.73
21236;BME280;10775;42.678;26.324;2024-01-15T08:11:29;98127.34;;;1.17;82.96
21236;BME280;10775;42.678;26.324;2024-01-15T08:13:55;98124.91;;;1.28;81.48
21236;BME280;10775;42.678;26.324;2024-01-15T08:16:21;98122.34;;;1.34;80.90
21236;BME280;10775;42.678;26.324;2024-01-15T08:18:47;98115.59;;;1.50;78.50
21236;BME280;10775;42.678;26.324;2024-01-15T08:21:12;98123.00;;;2.52;87.01
21236;BME280;10775;42.678;26.324;2024-01-15T08:23:38;98117.97;;;3.69;80.93
21236;BME280;10775;42.678;26.324;2024-01-15T08:26:07;98112.66;;;4.17;74.07
21236;BME280;10775;42.678;26.324;2024-01-15T08:28:32;98117.75;;;4.43;72.14
21236;BME280;10775;42.678;26.324;2024-01-15T08:30:58;98108.03;;;4.86;73.16
21236;BME280;10775;42.678;26.324;2024-01-15T08:33:24;98114.66;;;5.27;70.20
21236;BME280;10775;42.678;26.324;2024-01-15T08:35:54;98111.97;;;5.39;68.11
21236;BME280;10775;42.678;26.324;2024-01-15T08:38:20;98110.00;;;5.68;69.73
21236;BME280;10775;42.678;26.324;2024-01-15T08:40:46;98111.59;;;5.79;64.96
21236;BME280;10775;42.678;26.324;2024-01-15T08:43:12;98099.63;;;5.68;65.80
21236;BME280;10775;42.678;26.324;2024-01-15T08:45:37;98097.09;;;5.57;66.13
21236;BME280;10775;42.678;26.324;2024-01-15T08:48:03;98097.69;;;5.88;69.56
21236;BME280;10775;42.678;26.324;2024-01-15T08:50:29;98076.97;;;5.82;65.05
21236;BME280;10775;42.678;26.324;2024-01-15T08:52:55;98073.41;;;5.92;67.04
21236;BME280;10775;42.678;26.324;2024-01-15T08:55:21;98064.50;;;6.18;66.45
21236;BME280;10775;42.678;26.324;2024-01-15T08:57:48;98057.03;;;5.88;61.98
21236;BME280;10775;42.678;26.324;2024-01-15T09:00:14;98066.88;;;5.56;64.81
21236;BME280;10775;42.678;26.324;2024-01-15T09:02:39;98067.38;;;5.92;67.27
21236;BME280;10775;42.678;26.324;2024-01-15T09:05:05;98070.34;;;6.37;68.01
21236;BME280;10775;42.678;26.324;2024-01-15T09:07:32;98070.41;;;6.30;64.31
21236;BME280;10775;42.678;26.324;2024-01-15T09:09:57;98067.84;;;6.29;65.11
21236;BME280;10775;42.678;26.324;2024-01-15T09:12:25;98063.38;;;6.39;65.99
21236;BME280;10775;42.678;26.324;2024-01-15T09:14:51;98057.28;;;6.41;66.26
21236;BME280;10775;42.678;26.324;2024-01-15T09:17:17;98043.88;;;6.07;65.50
21236;BME280;10775;42.678;26.324;2024-01-15T09:19:43;98044.19;;;5.78;62.27
21236;BME280;10775;42.678;26.324;2024-01-15T09:22:09;98036.31;;;5.82;62.90
21236;BME280;10775;42.678;26.324;2024-01-15T09:24:35;98038.63;;;6.12;63.92
21236;BME280;10775;42.678;26.324;2024-01-15T09:27:01;98032.56;;;6.13;64.11
21236;BME280;10775;42.678;26.324;2024-01-15T09:29:26;98035.09;;;6.17;62.42
21236;BME280;10775;42.678;26.324;2024-01-15T09:31:51;98024.00;;;6.04;62.00
21236;BME280;10775;42.678;26.324;2024-01-15T09:34:17;98016.94;;;5.34;63.16
21236;BME280;10775;42.678;26.324;2024-01-15T09:36:43;98013.59;;;5.22;65.44
21236;BME280;10775;42.678;26.324;2024-01-15T09:39:09;98008.03;;;5.62;64.69
21236;BME280;10775;42.678;26.324;2024-01-15T09:41:37;98000.91;;;5.80;65.01
21236;BME280;10775;42.678;26.324;2024-01-15T09:44:06;98000.25;;;5.62;65.72
21236;BME280;10775;42.678;26.324;2024-01-15T09:46:33;97995.63;;;5.87;66.50
21236;BME280;10775;42.678;26.324;2024-01-15T09:49:00;97984.78;;;6.26;66.53
21236;BME280;10775;42.678;26.324;2024-01-15T09:51:28;97984.09;;;6.13;61.74
21236;BME280;10775;42.678;26.324;2024-01-15T09:53:57;97978.84;;;6.18;63.83
21236;BME280;10775;42.678;26.324;2024-01-15T09:56:23;97972.44;;;5.75;61.83
21236;BME280;10775;42.678;26.324;2024-01-15T09:58:48;97974.94;;;5.83;63.50
21236;BME280;10775;42.678;26.324;2024-01-15T10:01:16;97969.63;;;5.95;63.69
21236;BME280;10775;42.678;26.324;2024-01-15T10:03:42;97966.91;;;6.06;65.38
21236;BME280;10775;42.678;26.324;2024-01-15T10:06:08;97965.09;;;6.11;64.25
21236;BME280;10775;42.678;26.324;2024-01-15T10:08:36;97965.13;;;6.08;64.05
21236;BME280;10775;42.678;26.324;2024-01-15T10:11:02;97964.47;;;5.89;62.65
21236;BME280;10775;42.678;26.324;2024-01-15T10:13:30;97951.75;;;5.71;63.20
21236;BME280;10775;42.678;26.324;2024-01-15T10:15:56;97956.81;;;5.80;64.91
21236;BME280;10775;42.678;26.324;2024-01-15T10:18:23;97963.59;;;5.92;63.35
21236;BME280;10775;42.678;26.324;2024-01-15T10:20:49;97954.22;;;5.80;62.81
21236;BME280;10775;42.678;26.324;2024-01-15T10:23:14;97958.44;;;5.87;65.05
21236;BME280;10775;42.678;26.324;2024-01-15T10:25:42;97948.06;;;5.87;63.75
21236;BME280;10775;42.678;26.324;2024-01-15T10:28:08;97948.94;;;5.87;65.33
21236;BME280;10775;42.678;26.324;2024-01-15T10:30:34;97955.16;;;5.76;65.02
21236;BME280;10775;42.678;26.324;2024-01-15T10:33:01;97946.59;;;5.66;64.78
21236;BME280;10775;42.678;26.324;2024-01-15T10:35:28;97929.50;;;5.51;63.37
21236;BME280;10775;42.678;26.324;2024-01-15T10:37:54;97934.72;;;5.48;64.99
21236;BME280;10775;42.678;26.324;2024-01-15T10:40:20;97928.63;;;5.51;67.14
21236;BME280;10775;42.678;26.324;2024-01-15T10:42:45;97920.84;;;5.51;66.94
21236;BME280;10775;42.678;26.324;2024-01-15T10:45:15;97917.47;;;5.44;67.11
21236;BME280;10775;42.678;26.324;2024-01-15T10:47:42;97917.69;;;5.26;66.43
21236;BME280;10775;42.678;26.324;2024-01-15T10:50:08;97903.25;;;5.00;66.92
21236;BME280;10775;42.678;26.324;2024-01-15T10:52:38;97910.03;;;5.15;67.65
21236;BME280;10775;42.678;26.324;2024-01-15T10:55:08;97903.66;;;5.43;69.96
21236;BME280;10775;42.678;26.324;2024-01-15T10:57:35;97893.19;;;5.51;65.75
21236;BME280;10775;42.678;26.324;2024-01-15T11:00:02;97885.00;;;5.82;67.52
21236;BME280;10775;42.678;26.324;2024-01-15T11:02:32;97869.34;;;5.91;65.98
21236;BME280;10775;42.678;26.324;2024-01-15T11:04:59;97860.53;;;6.04;67.88
21236;BME280;10775;42.678;26.324;2024-01-15T11:07:24;97873.19;;;6.24;70.21
21236;BME280;10775;42.678;26.324;2024-01-15T11:09:51;97869.91;;;6.13;67.13
21236;BME280;10775;42.678;26.324;2024-01-15T11:12:16;97866.50;;;6.09;67.07
21236;BME280;10775;42.678;26.324;2024-01-15T11:14:49;97878.78;;;5.98;67.37
21236;BME280;10775;42.678;26.324;2024-01-15T11:17:17;97881.56;;;5.80;66.02
21236;BME280;10775;42.678;26.324;2024-01-15T11:19:47;97884.72;;;6.06;68.77
21236;BME280;10775;42.678;26.324;2024-01-15T11:24:57;97868.25;;;6.07;68.08
21236;BME280;10775;42.678;26.324;2024-01-15T11:27:43;97871.19;;;5.83;69.14
21236;BME280;10775;42.678;26.324;2024-01-15T11:30:10;97876.69;;;5.57;67.12
21236;BME280;10775;42.678;26.324;2024-01-15T11:32:36;97856.03;;;5.49;68.75
21236;BME280;10775;42.678;26.324;2024-01-15T11:35:02;97859.19;;;5.76;69.43
21236;BME280;10775;42.678;26.324;2024-01-15T11:42:58;97849.59;;;5.79;70.71
21236;BME280;10775;42.678;26.324;2024-01-15T11:45:24;97850.44;;;5.83;70.61
21236;BME280;10775;42.678;26.324;2024-01-15T11:48:11;97852.03;;;5.90;70.60
21236;BME280;10775;42.678;26.324;2024-01-15T11:50:49;97836.44;;;5.96;72.28
21236;BME280;10775;42.678;26.324;2024-01-15T11:53:47;97839.69;;;6.09;71.88
21236;BME280;10775;42.678;26.324;2024-01-15T11:56:17;97836.31;;;6.02;69.21
21236;BME280;10775;42.678;26.324;2024-01-15T11:58:43;97848.97;;;5.63;68.87
21236;BME280;10775;42.678;26.324;2024-01-15T12:01:10;97841.22;;;5.60;69.80
21236;BME280;10775;42.678;26.324;2024-01-15T12:03:36;97846.09;;;5.82;69.44
21236;BME280;10775;42.678;26.324;2024-01-15T12:06:01;97844.38;;;5.82;69.32
21236;BME280;10775;42.678;26.324;2024-01-15T12:08:27;97855.53;;;5.89;68.21
21236;BME280;10775;42.678;26.324;2024-01-15T12:10:53;97842.47;;;5.97;69.31
21236;BME280;10775;42.678;26.324;2024-01-15T12:13:19;97841.16;;;6.25;69.70
21236;BME280;10775;42.678;26.324;2024-01-15T12:15:46;97828.88;;;6.37;68.20
21236;BME280;10775;42.678;26.324;2024-01-15T12:18:14;97823.38;;;6.53;67.91
21236;BME280;10775;42.678;26.324;2024-01-15T12:20:40;97819.66;;;6.68;69.28
21236;BME280;10775;42.678;26.324;2024-01-15T12:23:06;97811.09;;;6.12;66.05
21236;BME280;10775;42.678;26.324;2024-01-15T12:25:32;97813.00;;;6.01;67.68
21236;BME280;10775;42.678;26.324;2024-01-15T12:27:59;97809.41;;;6.09;66.57
21236;BME280;10775;42.678;26.324;2024-01-15T12:30:29;97819.47;;;6.29;68.08
21236;BME280;10775;42.678;26.324;2024-01-15T12:32:56;97818.50;;;6.35;67.21
21236;BME280;10775;42.678;26.324;2024-01-15T12:35:24;97812.72;;;6.69;69.85
21236;BME280;10775;42.678;26.324;2024-01-15T12:37:49;97807.25;;;6.84;69.19
21236;BME280;10775;42.678;26.324;2024-01-15T12:40:19;97805.28;;;6.97;67.64
21236;BME280;10775;42.678;26.324;2024-01-15T12:42:44;97792.56;;;6.83;63.69
21236;BME280;10775;42.678;26.324;2024-01-15T12:45:12;97790.06;;;6.77;65.58
21236;BME280;10775;42.678;26.324;2024-01-15T12:47:38;97794.03;;;6.50;65.00
21236;BME280;10775;42.678;26.324;2024-01-15T12:50:09;97798.44;;;6.45;66.59
21236;BME280;10775;42.678;26.324;2024-01-15T12:52:34;97801.91;;;6.44;64.71
21236;BME280;10775;42.678;26.324;2024-01-15T12:55:00;97807.59;;;6.64;66.86
21236;BME280;10775;42.678;26.324;2024-01-15T12:57:25;97808.22;;;6.77;64.93